createdAt,value
2022-12-13T00:01:16.722Z,100052.97
2022-12-13T00:03:45.498Z,100058.50
2022-12-13T00:06:12.932Z,100064.53
2022-12-13T00:08:46.026Z,100073.31
2022-12-13T00:11:15.273Z,100076.03
2022-12-13T00:13:43.623Z,100077.66
2022-12-13T00:16:14.206Z,100081.75
2022-12-13T00:18:41.248Z,100077.16
2022-12-13T00:21:13.503Z,100085.03
2022-12-13T00:23:40.370Z,100091.53
2022-12-13T00:26:11.082Z,100080.16
2022-12-13T00:28:38.828Z,100087.25
2022-12-13T00:31:43.189Z,100087.25
2022-12-13T00:33:53.925Z,100083.16
2022-12-13T00:36:20.796Z,100077.97
2022-12-13T00:39:00.517Z,100079.84
2022-12-13T00:41:36.156Z,100064.88
2022-12-13T00:44:04.462Z,100075.81
2022-12-13T00:46:31.834Z,100077.13
2022-12-13T00:49:01.276Z,100070.81
2022-12-13T00:51:30.215Z,100062.34
2022-12-13T00:53:58.217Z,100060.13
2022-12-13T00:56:27.722Z,100042.09
2022-12-13T00:58:57.815Z,100030.41
2022-12-13T01:01:30.921Z,100027.22
2022-12-13T01:04:03.999Z,100019.88
2022-12-13T01:06:37.540Z,100029.41
2022-12-13T01:09:08.059Z,100030.56
2022-12-13T01:11:35.065Z,100037.16
2022-12-13T01:14:02.802Z,100041.78
2022-12-13T01:16:29.852Z,100047.25
2022-12-13T01:18:58.031Z,100048.03
2022-12-13T01:21:24.906Z,100056.97
2022-12-13T01:23:51.855Z,100045.56
2022-12-13T01:26:20.908Z,100045.91
2022-12-13T01:28:49.018Z,100045.91
2022-12-13T01:31:18.868Z,100052.44
2022-12-13T01:33:46.191Z,100040.97
2022-12-13T01:36:19.539Z,100045.25
2022-12-13T01:38:58.691Z,100043.44
2022-12-13T01:41:28.656Z,100044.00
2022-12-13T01:44:01.319Z,100049.44
2022-12-13T01:46:28.384Z,100025.75
2022-12-13T01:49:01.045Z,100009.00
2022-12-13T01:51:34.315Z,100025.47
2022-12-13T01:54:03.367Z,100034.94
2022-12-13T01:56:41.180Z,100039.31
2022-12-13T01:59:10.912Z,100039.91
2022-12-13T02:01:38.717Z,100042.09
2022-12-13T02:04:06.302Z,100049.72
2022-12-13T02:06:43.697Z,100043.13
2022-12-13T02:09:11.338Z,100039.94
2022-12-13T02:11:43.699Z,100038.53
2022-12-13T02:14:12.203Z,100036.94
2022-12-13T02:17:05.286Z,100044.81
2022-12-13T02:20:21.711Z,100066.34
2022-12-13T02:23:04.865Z,100073.38
2022-12-13T02:25:43.473Z,100062.25
2022-12-13T02:28:35.658Z,100078.59
2022-12-13T02:31:26.726Z,100066.09
2022-12-13T02:34:02.151Z,100081.06
2022-12-13T02:36:36.192Z,100081.38
2022-12-13T02:39:30.369Z,100086.25
2022-12-13T02:42:03.184Z,100097.97
2022-12-13T02:44:42.215Z,100111.59
2022-12-13T02:47:21.835Z,100113.22
2022-12-13T02:49:52.822Z,100103.41
2022-12-13T02:52:22.965Z,100096.28
2022-12-13T02:54:50.039Z,100104.16
2022-12-13T02:57:34.513Z,100103.63
2022-12-13T03:00:24.585Z,100090.75
2022-12-13T03:03:00.636Z,100071.88
2022-12-13T03:05:49.335Z,100064.00
2022-12-13T03:08:24.289Z,100066.97
2022-12-13T03:10:59.127Z,100078.75
2022-12-13T03:27:16.359Z,100112.88
2022-12-13T03:29:43.214Z,100135.19
2022-12-13T03:32:10.065Z,100139.78
2022-12-13T03:34:44.269Z,100119.88
2022-12-13T03:37:13.211Z,100106.50
2022-12-13T03:39:40.089Z,100097.25
2022-12-13T03:42:06.957Z,100102.94
2022-12-13T03:44:33.776Z,100103.22
2022-12-13T03:47:00.964Z,100093.72
2022-12-13T03:49:35.030Z,100095.91
2022-12-13T03:52:02.767Z,100101.94
2022-12-13T03:54:29.561Z,100113.97
2022-12-13T03:56:56.407Z,100125.19
2022-12-13T03:59:23.234Z,100115.94
2022-12-13T04:01:50.255Z,100124.63
2022-12-13T04:04:17.289Z,100127.94
2022-12-13T04:06:44.725Z,100114.88
2022-12-13T04:09:12.773Z,100127.97
2022-12-13T04:11:58.113Z,100144.56
2022-12-13T04:14:25.654Z,100146.22
2022-12-13T04:16:58.388Z,100149.53
2022-12-13T04:19:25.299Z,100152.50
2022-12-13T04:21:54.422Z,100159.59
2022-12-13T04:24:31.929Z,100156.88
2022-12-13T04:27:01.134Z,100157.97
2022-12-13T04:29:34.276Z,100167.44
2022-12-13T04:32:03.936Z,100159.84
2022-12-13T04:34:36.794Z,100151.38
2022-12-13T04:37:04.905Z,100156.03
2022-12-13T04:39:34.510Z,100145.94
2022-12-13T04:42:01.744Z,100131.25
2022-12-13T04:44:35.075Z,100129.59
2022-12-13T04:47:04.700Z,100122.00
2022-12-13T04:49:32.417Z,100113.00
2022-12-13T04:52:01.511Z,100118.16
2022-12-13T04:54:35.562Z,100123.06
2022-12-13T04:57:02.798Z,100124.66
2022-12-13T04:59:29.627Z,100118.72
2022-12-13T05:01:56.462Z,100131.44
2022-12-13T05:04:27.534Z,100123.84
2022-12-13T05:06:57.681Z,100131.16
2022-12-13T05:09:24.828Z,100138.50
2022-12-13T05:11:51.702Z,100139.00
2022-12-13T05:14:28.374Z,100147.44
2022-12-13T05:16:55.546Z,100149.53
2022-12-13T05:19:30.444Z,100145.72
2022-12-13T05:22:00.963Z,100146.53
2022-12-13T05:24:28.042Z,100145.19
2022-12-13T05:26:54.900Z,100146.50
2022-12-13T05:29:21.801Z,100137.28
2022-12-13T05:31:48.715Z,100138.63
2022-12-13T05:34:15.613Z,100159.25
2022-12-13T05:36:42.599Z,100170.13
2022-12-13T05:39:29.352Z,100165.47
2022-12-13T05:42:01.412Z,100175.75
2022-12-13T05:44:29.031Z,100178.47
2022-12-13T05:46:55.920Z,100181.47
2022-12-13T05:49:22.745Z,100183.06
2022-12-13T05:51:49.683Z,100192.59
2022-12-13T05:54:16.677Z,100191.75
2022-12-13T05:56:43.573Z,100215.63
2022-12-13T05:59:10.423Z,100209.41
2022-12-13T06:01:37.288Z,100211.84
2022-12-13T06:04:10.649Z,100216.50
2022-12-13T06:06:37.697Z,100222.16
2022-12-13T06:09:04.701Z,100213.81
2022-12-13T06:11:32.544Z,100228.25
2022-12-13T06:14:00.906Z,100232.03
2022-12-13T06:16:28.304Z,100229.59
2022-12-13T06:19:03.336Z,100238.31
2022-12-13T06:21:45.533Z,100262.78
2022-12-13T06:24:17.683Z,100262.53
2022-12-13T06:26:46.019Z,100273.19
2022-12-13T06:29:23.199Z,100282.16
2022-12-13T06:31:53.820Z,100276.75
2022-12-13T06:34:20.956Z,100279.06
2022-12-13T06:36:47.951Z,100280.06
2022-12-13T06:39:15.917Z,100286.63
2022-12-13T06:41:42.943Z,100296.91
2022-12-13T06:44:09.836Z,100292.28
2022-12-13T06:46:36.809Z,100302.59
2022-12-13T06:49:07.766Z,100295.53
2022-12-13T06:51:35.128Z,100308.34
2022-12-13T06:54:02.750Z,100303.41
2022-12-13T06:56:30.673Z,100306.16
2022-12-13T06:59:01.786Z,100312.69
2022-12-13T07:01:37.062Z,100326.34
2022-12-13T07:04:28.929Z,100315.25
2022-12-13T07:06:52.977Z,100316.94
2022-12-13T07:09:19.893Z,100316.91
2022-12-13T07:11:51.981Z,100313.16
2022-12-13T07:14:19.816Z,100314.28
2022-12-13T07:16:46.715Z,100304.72
2022-12-13T07:19:24.112Z,100313.75
2022-12-13T07:21:52.178Z,100311.88
2022-12-13T07:24:19.202Z,100325.50
2022-12-13T07:26:46.081Z,100324.13
2022-12-13T07:29:13.017Z,100324.94
2022-12-13T07:31:49.298Z,100330.66
2022-12-13T07:34:16.169Z,100338.84
2022-12-13T07:36:43.140Z,100333.66
2022-12-13T07:39:10.645Z,100340.47
2022-12-13T07:41:37.585Z,100333.13
2022-12-13T07:44:04.977Z,100340.50
2022-12-13T07:46:33.792Z,100342.16
2022-12-13T07:49:05.841Z,100340.53
2022-12-13T07:51:35.087Z,100335.34
2022-12-13T07:54:06.815Z,100345.44
2022-12-13T07:56:35.079Z,100353.59
2022-12-13T07:59:02.215Z,100359.31
2022-12-13T08:01:34.816Z,100363.13
2022-12-13T08:04:02.780Z,100379.47
2022-12-13T08:06:30.004Z,100386.56
2022-12-13T08:08:57.863Z,100390.91
2022-12-13T08:11:24.941Z,100393.34
2022-12-13T08:13:53.731Z,100396.38
2022-12-13T08:16:26.363Z,100402.03
2022-12-13T08:19:02.191Z,100398.50
2022-12-13T08:21:56.111Z,100416.00
2022-12-13T08:24:26.229Z,100411.63
2022-12-13T08:26:55.042Z,100412.56
2022-12-13T08:29:23.486Z,100411.63
2022-12-13T08:32:02.730Z,100411.53
2022-12-13T08:34:30.145Z,100412.00
2022-12-13T08:37:02.050Z,100406.84
2022-12-13T08:39:37.692Z,100401.63
2022-12-13T08:42:25.056Z,100413.03
2022-12-13T08:44:53.778Z,100403.09
2022-12-13T08:47:25.551Z,100407.13
2022-12-13T08:50:04.109Z,100394.66
2022-12-13T08:52:39.878Z,100407.84
2022-12-13T08:55:09.870Z,100394.97
2022-12-13T08:57:37.870Z,100389.72
2022-12-13T09:00:19.226Z,100401.59
2022-12-13T09:02:46.414Z,100420.16
2022-12-13T09:05:34.061Z,100437.31
2022-12-13T09:08:04.365Z,100436.78
2022-12-13T09:10:59.161Z,100435.94
2022-12-13T09:13:32.051Z,100422.31
2022-12-13T09:16:14.037Z,100434.59
2022-12-13T09:18:42.392Z,100425.78
2022-12-13T09:21:14.654Z,100419.31
2022-12-13T09:23:49.387Z,100432.44
2022-12-13T09:26:16.947Z,100429.81
2022-12-13T09:28:43.875Z,100426.09
2022-12-13T09:31:16.108Z,100425.16
2022-12-13T09:33:44.094Z,100426.28
2022-12-13T09:36:14.141Z,100417.00
2022-12-13T09:38:41.371Z,100408.22
2022-12-13T09:41:48.795Z,100407.78
2022-12-13T09:44:32.401Z,100400.53
2022-12-13T09:47:35.834Z,100400.97
2022-12-13T09:50:08.382Z,100409.75
2022-12-13T09:52:44.328Z,100408.13
2022-12-13T09:55:23.582Z,100412.63
2022-12-13T09:57:51.870Z,100416.81
2022-12-13T10:00:21.847Z,100405.19
2022-12-13T10:02:53.615Z,100410.47
2022-12-13T10:05:39.225Z,100403.16
2022-12-13T10:08:15.181Z,100402.84
2022-12-13T10:10:43.940Z,100397.81
2022-12-13T10:13:28.059Z,100401.94
2022-12-13T10:16:02.485Z,100401.91
2022-12-13T10:18:47.787Z,100407.72
2022-12-13T10:21:29.293Z,100396.50
2022-12-13T10:24:34.515Z,100412.78
2022-12-13T10:27:14.375Z,100402.00
2022-12-13T10:30:01.383Z,100400.22
2022-12-13T10:32:30.346Z,100406.66
2022-12-13T10:35:28.557Z,100406.22
2022-12-13T10:37:59.267Z,100402.13
2022-12-13T10:40:32.019Z,100395.50
2022-12-13T10:43:17.334Z,100399.78
2022-12-13T10:45:58.266Z,100400.09
2022-12-13T10:48:45.420Z,100384.22
2022-12-13T10:51:15.486Z,100385.53
2022-12-13T10:53:48.492Z,100377.34
2022-12-13T10:56:23.122Z,100384.13
2022-12-13T10:59:18.402Z,100376.31
2022-12-13T11:01:45.565Z,100377.66
2022-12-13T11:04:36.024Z,100370.56
2022-12-13T11:07:30.050Z,100373.03
2022-12-13T11:10:05.082Z,100369.91
2022-12-13T11:12:33.375Z,100367.03
2022-12-13T11:15:06.314Z,100370.03
2022-12-13T11:17:39.622Z,100373.28
2022-12-13T11:20:19.992Z,100376.88
2022-12-13T11:22:46.974Z,100370.41
2022-12-13T11:25:33.991Z,100360.84
2022-12-13T11:28:27.748Z,100373.50
2022-12-13T11:31:25.322Z,100365.41
2022-12-13T11:34:13.758Z,100376.84
2022-12-13T11:37:11.192Z,100378.94
2022-12-13T11:39:43.979Z,100380.94
2022-12-13T11:42:28.257Z,100381.84
2022-12-13T11:45:22.584Z,100382.47
2022-12-13T11:48:05.737Z,100395.59
2022-12-13T11:50:37.167Z,100379.03
2022-12-13T11:53:09.698Z,100384.81
2022-12-13T11:55:42.685Z,100376.00
2022-12-13T11:58:53.924Z,100385.66
2022-12-13T12:01:21.487Z,100373.00
2022-12-13T12:03:56.435Z,100376.75
2022-12-13T12:06:27.358Z,100387.22
2022-12-13T12:08:59.627Z,100386.47
2022-12-13T12:11:38.956Z,100386.50
2022-12-13T12:14:24.497Z,100376.41
2022-12-13T12:16:54.280Z,100380.28
2022-12-13T12:19:24.129Z,100389.03
2022-12-13T12:22:42.126Z,100387.53
2022-12-13T12:25:22.450Z,100392.31
2022-12-13T12:28:14.963Z,100400.34
2022-12-13T12:30:45.017Z,100402.19
2022-12-13T12:33:36.813Z,100409.72
2022-12-13T12:36:23.923Z,100421.00
2022-12-13T12:39:13.603Z,100413.78
2022-12-13T12:41:49.338Z,100425.16
2022-12-13T12:44:31.598Z,100427.91
2022-12-13T12:50:34.041Z,100449.22
2022-12-13T12:53:28.685Z,100438.53
2022-12-13T12:56:16.507Z,100453.47
2022-12-13T12:58:43.295Z,100445.06
2022-12-13T13:01:13.578Z,100453.53
2022-12-13T13:03:43.535Z,100451.53
2022-12-13T13:06:14.465Z,100454.69
2022-12-13T13:08:55.516Z,100463.38
2022-12-13T13:11:28.807Z,100465.31
2022-12-13T13:14:01.747Z,100456.66
2022-12-13T13:16:38.585Z,100455.69
2022-12-13T13:19:12.015Z,100465.06
2022-12-13T13:21:47.436Z,100458.84
2022-12-13T13:24:17.203Z,100466.81
2022-12-13T13:26:53.205Z,100466.84
2022-12-13T13:29:31.921Z,100472.31
2022-12-13T13:32:29.481Z,100481.31
2022-12-13T13:35:35.637Z,100489.50
2022-12-13T13:38:16.332Z,100491.69
2022-12-13T13:40:43.260Z,100489.78
2022-12-13T13:43:10.076Z,100488.94
2022-12-13T13:45:49.301Z,100491.13
2022-12-13T13:48:38.115Z,100496.06
2022-12-13T13:51:29.903Z,100505.06
2022-12-13T13:54:08.712Z,100504.53
2022-12-13T13:57:17.390Z,100508.59
2022-12-13T13:59:50.002Z,100513.50
2022-12-13T14:03:09.105Z,100519.50
2022-12-13T14:06:29.243Z,100525.50
2022-12-13T14:09:20.855Z,100532.03
2022-12-13T14:12:09.400Z,100536.94
2022-12-13T14:14:42.229Z,100543.75
2022-12-13T14:17:44.672Z,100545.38
2022-12-13T14:20:30.147Z,100550.28
2022-12-13T14:23:05.135Z,100544.00
2022-12-13T14:25:52.126Z,100551.06
2022-12-13T14:28:25.684Z,100558.38
2022-12-13T14:30:57.153Z,100567.59
2022-12-13T14:33:26.986Z,100567.84
2022-12-13T14:35:56.962Z,100580.88
2022-12-13T14:38:27.351Z,100580.59
2022-12-13T14:41:00.218Z,100584.38
2022-12-13T14:43:32.561Z,100583.03
2022-12-13T14:46:05.513Z,100581.63
2022-12-13T14:48:56.132Z,100586.47
2022-12-13T14:51:32.777Z,100585.88
2022-12-13T14:54:00.994Z,100589.63
2022-12-13T14:56:29.279Z,100606.47
2022-12-13T14:59:11.634Z,100610.84
2022-12-13T15:01:39.420Z,100619.81
2022-12-13T15:04:21.616Z,100627.13
2022-12-13T15:06:55.468Z,100627.94
2022-12-13T15:09:25.238Z,100626.31
2022-12-13T15:12:04.338Z,100624.91
2022-12-13T15:14:45.353Z,100628.56
2022-12-13T15:29:18.138Z,100662.59
2022-12-13T15:31:48.737Z,100662.44
2022-12-13T15:34:31.348Z,100666.06
2022-12-13T15:37:05.722Z,100666.25
2022-12-13T15:39:38.153Z,100675.25
2022-12-13T15:42:05.707Z,100680.69
2022-12-13T15:44:55.155Z,100685.94
2022-12-13T15:47:28.730Z,100691.53
2022-12-13T15:50:01.571Z,100691.09
2022-12-13T15:52:34.377Z,100689.91
2022-12-13T15:55:07.830Z,100695.09
2022-12-13T15:57:50.275Z,100702.72
2022-12-13T16:00:17.170Z,100702.13
2022-12-13T16:02:56.776Z,100724.09
2022-12-13T16:05:35.761Z,100719.66
2022-12-13T16:08:38.170Z,100721.22
2022-12-13T16:11:06.864Z,100729.16
2022-12-13T16:13:37.252Z,100728.53
2022-12-13T16:16:27.865Z,100750.75
2022-12-13T16:19:00.485Z,100750.69
2022-12-13T16:21:28.753Z,100761.94
2022-12-13T16:23:55.827Z,100757.66
2022-12-13T16:26:28.182Z,100763.69
2022-12-13T16:28:58.822Z,100762.75
2022-12-13T16:31:35.932Z,100760.28
2022-12-13T16:34:04.271Z,100771.22
2022-12-13T16:36:31.461Z,100764.91
2022-12-13T16:38:58.285Z,100762.19
2022-12-13T16:41:25.758Z,100758.94
2022-12-13T16:43:58.593Z,100760.09
2022-12-13T16:47:14.517Z,100755.69
2022-12-13T16:49:29.598Z,100753.53
2022-12-13T16:51:57.280Z,100757.13
2022-12-13T16:54:25.981Z,100755.22
2022-12-13T16:56:54.139Z,100750.00
2022-12-13T16:59:23.263Z,100763.72
2022-12-13T17:01:52.039Z,100763.25
2022-12-13T17:04:24.390Z,100765.50
2022-12-13T17:06:55.153Z,100768.38
2022-12-13T17:09:23.453Z,100770.44
2022-12-13T17:11:50.340Z,100774.13
2022-12-13T17:14:17.227Z,100778.25
2022-12-13T17:16:44.207Z,100771.16
2022-12-13T17:19:12.376Z,100767.50
2022-12-13T17:21:39.227Z,100773.41
2022-12-13T17:24:06.343Z,100767.19
2022-12-13T17:26:33.299Z,100777.03
2022-12-13T17:29:00.140Z,100774.66
2022-12-13T17:31:31.782Z,100788.00
2022-12-13T17:34:02.930Z,100779.84
2022-12-13T17:36:31.589Z,100773.00
2022-12-13T17:38:58.770Z,100767.53
2022-12-13T17:41:25.818Z,100765.69
2022-12-13T17:43:52.675Z,100770.97
2022-12-13T17:46:19.713Z,100768.41
2022-12-13T17:48:46.792Z,100770.78
2022-12-13T17:51:14.801Z,100766.53
2022-12-13T17:53:43.615Z,100766.28
2022-12-13T17:56:12.935Z,100780.59
2022-12-13T17:58:40.224Z,100779.66
2022-12-13T18:01:15.208Z,100783.47
2022-12-13T18:03:42.758Z,100763.81
2022-12-13T18:06:10.513Z,100768.41
2022-12-13T18:08:39.063Z,100772.25
2022-12-13T18:13:55.585Z,100785.25
2022-12-13T18:16:26.719Z,100777.69
2022-12-13T18:18:57.193Z,100767.59
2022-12-13T18:21:26.750Z,100771.09
2022-12-13T18:23:56.165Z,100774.31
2022-12-13T18:26:24.625Z,100774.59
2022-12-13T18:28:52.388Z,100774.66
2022-12-13T18:31:24.461Z,100768.41
2022-12-13T18:33:53.167Z,100767.25
2022-12-13T18:36:22.920Z,100777.59
2022-12-13T18:38:50.035Z,100784.44
2022-12-13T18:41:25.096Z,100790.78
2022-12-13T18:43:59.590Z,100783.88
2022-12-13T18:46:28.888Z,100799.88
2022-12-13T18:48:56.969Z,100790.19
2022-12-13T18:51:24.524Z,100794.94
2022-12-13T18:53:51.988Z,100793.22
2022-12-13T18:56:19.631Z,100794.06
2022-12-13T18:58:50.740Z,100793.31
2022-12-13T19:01:18.807Z,100788.22
2022-12-13T19:03:47.800Z,100785.38
2022-12-13T19:06:20.425Z,100781.50
2022-12-13T19:08:53.080Z,100777.69
2022-12-13T19:11:20.608Z,100787.25
2022-12-13T19:13:47.979Z,100785.09
2022-12-13T19:16:18.219Z,100791.34
2022-12-13T19:18:45.593Z,100784.88
2022-12-13T19:21:15.759Z,100786.50
2022-12-13T19:23:43.163Z,100770.56
2022-12-13T19:26:13.316Z,100773.09
2022-12-13T19:28:41.864Z,100782.88
2022-12-13T19:31:11.359Z,100773.84
2022-12-13T19:33:38.364Z,100783.38
2022-12-13T19:36:06.282Z,100775.47
2022-12-13T19:38:33.679Z,100771.63
2022-12-13T19:41:00.890Z,100775.41
2022-12-13T19:43:28.504Z,100776.63
2022-12-13T19:45:55.705Z,100781.94
2022-12-13T19:48:22.693Z,100786.91
2022-12-13T19:50:49.931Z,100783.94
2022-12-13T19:53:17.556Z,100783.59
2022-12-13T19:55:48.359Z,100793.88
2022-12-13T19:58:15.841Z,100792.91
2022-12-13T20:00:42.788Z,100798.50
2022-12-13T20:03:09.745Z,100789.53
2022-12-13T20:05:36.680Z,100783.28
2022-12-13T20:08:03.719Z,100803.91
2022-12-13T20:10:34.781Z,100808.28
2022-12-13T20:13:01.817Z,100809.56
2022-12-13T20:15:28.882Z,100792.03
2022-12-13T20:17:55.830Z,100796.91
2022-12-13T20:20:28.266Z,100799.03
2022-12-13T20:23:03.144Z,100807.41
2022-12-13T20:25:30.016Z,100802.22
2022-12-13T20:27:57.139Z,100797.13
2022-12-13T20:30:24.195Z,100798.94
2022-12-13T20:32:51.626Z,100792.38
2022-12-13T20:35:20.149Z,100794.16
2022-12-13T20:37:49.708Z,100792.28
2022-12-13T20:40:17.930Z,100801.56
2022-12-13T20:42:47.435Z,100783.16
2022-12-13T20:45:14.396Z,100781.44
2022-12-13T20:47:41.299Z,100787.81
2022-12-13T20:50:08.714Z,100785.81
2022-12-13T20:52:35.614Z,100789.69
2022-12-13T20:55:02.908Z,100791.16
2022-12-13T20:57:29.856Z,100796.09
2022-12-13T20:59:56.664Z,100792.31
2022-12-13T21:02:24.578Z,100790.66
2022-12-13T21:04:51.547Z,100790.78
2022-12-13T21:07:38.334Z,100799.03
2022-12-13T21:10:05.558Z,100797.75
2022-12-13T21:12:32.428Z,100794.44
2022-12-13T21:14:59.339Z,100799.97
2022-12-13T21:17:26.297Z,100802.06
2022-12-13T21:19:53.094Z,100798.53
2022-12-13T21:22:21.452Z,100805.88
2022-12-13T21:24:48.329Z,100804.78
2022-12-13T21:27:15.314Z,100809.16
2022-12-13T21:29:42.124Z,100807.38
2022-12-13T21:32:09.093Z,100808.44
2022-12-13T21:34:35.951Z,100814.06
2022-12-13T21:37:02.742Z,100808.00
2022-12-13T21:39:29.754Z,100804.22
2022-12-13T21:41:57.618Z,100802.34
2022-12-13T21:44:24.667Z,100795.03
2022-12-13T21:49:38.813Z,100802.66
2022-12-13T21:52:05.890Z,100794.34
2022-12-13T21:54:32.748Z,100787.63
2022-12-13T21:57:18.331Z,100777.22
2022-12-13T21:59:46.154Z,100775.56
2022-12-13T22:02:16.954Z,100773.25
2022-12-13T22:04:45.045Z,100781.63
2022-12-13T22:07:37.998Z,100784.53
2022-12-13T22:10:05.889Z,100775.47
2022-12-13T22:12:35.359Z,100782.44
2022-12-13T22:15:04.671Z,100775.03
2022-12-13T22:17:35.784Z,100768.41
2022-12-13T22:20:12.281Z,100758.22
2022-12-13T22:22:40.494Z,100771.88
2022-12-13T22:25:08.586Z,100770.66
2022-12-13T22:27:35.541Z,100778.34
2022-12-13T22:30:03.524Z,100773.75
2022-12-13T22:32:32.253Z,100781.16
2022-12-13T22:34:59.431Z,100787.28
2022-12-13T22:37:26.406Z,100792.50
2022-12-13T22:39:53.407Z,100797.25
2022-12-13T22:42:21.191Z,100800.06
2022-12-13T22:44:48.376Z,100795.28
2022-12-13T22:47:15.709Z,100798.72
2022-12-13T22:49:42.536Z,100807.75
2022-12-13T22:52:09.467Z,100808.13
2022-12-13T22:54:36.408Z,100800.00
2022-12-13T22:57:03.314Z,100804.25
2022-12-13T22:59:30.209Z,100796.03
2022-12-13T23:02:01.971Z,100793.31
2022-12-13T23:04:32.570Z,100800.03
2022-12-13T23:06:59.750Z,100798.16
2022-12-13T23:09:26.726Z,100797.31
2022-12-13T23:12:12.148Z,100795.09
2022-12-13T23:14:39.007Z,100792.97
2022-12-13T23:17:06.283Z,100784.88
2022-12-13T23:19:49.444Z,100784.16
2022-12-13T23:22:22.532Z,100785.00
2022-12-13T23:24:51.221Z,100789.94
2022-12-13T23:27:19.770Z,100784.75
2022-12-13T23:29:46.639Z,100792.88
2022-12-13T23:32:13.619Z,100787.69
2022-12-13T23:34:40.528Z,100786.53
2022-12-13T23:37:07.376Z,100780.63
2022-12-13T23:39:34.170Z,100783.44
2022-12-13T23:42:01.059Z,100783.78
2022-12-13T23:44:27.878Z,100770.50
2022-12-13T23:46:55.416Z,100780.88
2022-12-13T23:49:22.333Z,100780.50
2022-12-13T23:51:49.426Z,100780.13
2022-12-13T23:54:19.393Z,100784.47
2022-12-13T23:56:47.315Z,100788.13
2022-12-13T23:59:14.147Z,100787.53
